sensor_id;sensor_type;location;lat;lon;timestamp;P1;durP1;ratioP1;P2;durP2;ratioP2
6517;SDS011;3292;48.944;9.240;2023-06-26T00:01:26;8.03;;;7.23;;
6517;SDS011;3292;48.944;9.240;2023-06-26T00:03:57;8.30;;;7.40;;
6517;SDS011;3292;48.944;9.240;2023-06-26T00:06:24;8.43;;;7.63;;
6517;SDS011;3292;48.944;9.240;2023-06-26T00:08:52;7.97;;;7.20;;
6517;SDS011;3292;48.944;9.240;2023-06-26T00:11:20;8.73;;;7.83;;
6517;SDS011;3292;48.944;9.240;2023-06-26T00:13:47;12.17;;;7.47;;
6517;SDS011;3292;48.944;9.240;2023-06-26T00:16:15;9.23;;;7.13;;
6517;SDS011;3292;48.944;9.240;2023-06-26T00:18:42;8.00;;;7.20;;
6517;SDS011;3292;48.944;9.240;2023-06-26T00:21:11;8.63;;;7.80;;
6517;SDS011;3292;48.944;9.240;2023-06-26T00:23:41;9.30;;;7.33;;
6517;SDS011;3292;48.944;9.240;2023-06-26T00:26:11;8.73;;;7.57;;
6517;SDS011;3292;48.944;9.240;2023-06-26T00:28:39;8.07;;;7.37;;
6517;SDS011;3292;48.944;9.240;2023-06-26T00:31:30;8.13;;;7.30;;
6517;SDS011;3292;48.944;9.240;2023-06-26T00:34:08;10.17;;;7.90;;
6517;SDS011;3292;48.944;9.240;2023-06-26T00:36:37;8.63;;;7.67;;
6517;SDS011;3292;48.944;9.240;2023-06-26T00:39:11;8.37;;;7.57;;
6517;SDS011;3292;48.944;9.240;2023-06-26T00:41:40;8.20;;;7.40;;
6517;SDS011;3292;48.944;9.240;2023-06-26T00:44:11;10.13;;;7.97;;
6517;SDS011;3292;48.944;9.240;2023-06-26T00:46:38;8.60;;;7.80;;
6517;SDS011;3292;48.944;9.240;2023-06-26T00:49:09;8.23;;;7.43;;
6517;SDS011;3292;48.944;9.240;2023-06-26T00:51:41;9.03;;;7.43;;
6517;SDS011;3292;48.944;9.240;2023-06-26T00:54:11;8.87;;;7.97;;
6517;SDS011;3292;48.944;9.240;2023-06-26T00:56:45;8.70;;;7.87;;
6517;SDS011;3292;48.944;9.240;2023-06-26T00:59:13;8.13;;;7.37;;
6517;SDS011;3292;48.944;9.240;2023-06-26T01:01:41;8.57;;;7.63;;
6517;SDS011;3292;48.944;9.240;2023-06-26T01:04:10;7.73;;;6.93;;
6517;SDS011;3292;48.944;9.240;2023-06-26T01:06:44;8.23;;;7.43;;
6517;SDS011;3292;48.944;9.240;2023-06-26T01:09:15;8.43;;;7.63;;
6517;SDS011;3292;48.944;9.240;2023-06-26T01:11:44;8.87;;;7.60;;
6517;SDS011;3292;48.944;9.240;2023-06-26T01:14:14;8.43;;;7.53;;
6517;SDS011;3292;48.944;9.240;2023-06-26T01:16:43;8.47;;;7.57;;
6517;SDS011;3292;48.944;9.240;2023-06-26T01:19:13;8.63;;;7.50;;
6517;SDS011;3292;48.944;9.240;2023-06-26T01:21:54;8.17;;;7.37;;
6517;SDS011;3292;48.944;9.240;2023-06-26T01:24:29;8.17;;;7.37;;
6517;SDS011;3292;48.944;9.240;2023-06-26T01:27:04;8.13;;;7.33;;
6517;SDS011;3292;48.944;9.240;2023-06-26T01:29:32;8.30;;;7.50;;
6517;SDS011;3292;48.944;9.240;2023-06-26T01:32:00;7.40;;;6.57;;
6517;SDS011;3292;48.944;9.240;2023-06-26T01:34:27;9.17;;;6.90;;
6517;SDS011;3292;48.944;9.240;2023-06-26T01:36:55;7.67;;;6.97;;
6517;SDS011;3292;48.944;9.240;2023-06-26T01:39:22;7.97;;;7.17;;
6517;SDS011;3292;48.944;9.240;2023-06-26T01:41:48;8.37;;;7.57;;
6517;SDS011;3292;48.944;9.240;2023-06-26T01:44:21;8.23;;;7.43;;
6517;SDS011;3292;48.944;9.240;2023-06-26T01:46:58;7.70;;;6.90;;
6517;SDS011;3292;48.944;9.240;2023-06-26T01:49:30;8.37;;;7.27;;
6517;SDS011;3292;48.944;9.240;2023-06-26T01:52:03;8.27;;;7.47;;
6517;SDS011;3292;48.944;9.240;2023-06-26T01:54:42;7.93;;;7.20;;
6517;SDS011;3292;48.944;9.240;2023-06-26T01:57:16;8.67;;;7.73;;
6517;SDS011;3292;48.944;9.240;2023-06-26T01:59:46;8.27;;;7.50;;
6517;SDS011;3292;48.944;9.240;2023-06-26T02:02:17;8.03;;;7.27;;
6517;SDS011;3292;48.944;9.240;2023-06-26T02:04:45;9.83;;;7.57;;
6517;SDS011;3292;48.944;9.240;2023-06-26T02:07:15;8.60;;;7.73;;
6517;SDS011;3292;48.944;9.240;2023-06-26T02:09:43;8.50;;;7.70;;
6517;SDS011;3292;48.944;9.240;2023-06-26T02:12:10;8.07;;;7.27;;
6517;SDS011;3292;48.944;9.240;2023-06-26T02:14:38;7.87;;;6.93;;
6517;SDS011;3292;48.944;9.240;2023-06-26T02:17:10;8.33;;;7.53;;
6517;SDS011;3292;48.944;9.240;2023-06-26T02:19:40;8.10;;;7.30;;
6517;SDS011;3292;48.944;9.240;2023-06-26T02:22:12;7.57;;;6.87;;
6517;SDS011;3292;48.944;9.240;2023-06-26T02:24:41;8.13;;;7.33;;
6517;SDS011;3292;48.944;9.240;2023-06-26T02:27:15;8.43;;;7.63;;
6517;SDS011;3292;48.944;9.240;2023-06-26T02:29:43;8.37;;;7.60;;
6517;SDS011;3292;48.944;9.240;2023-06-26T02:32:11;8.90;;;7.97;;
6517;SDS011;3292;48.944;9.240;2023-06-26T02:34:38;8.20;;;7.20;;
6517;SDS011;3292;48.944;9.240;2023-06-26T02:37:05;7.80;;;7.10;;
6517;SDS011;3292;48.944;9.240;2023-06-26T02:39:32;8.80;;;7.90;;
6517;SDS011;3292;48.944;9.240;2023-06-26T02:41:59;8.13;;;7.30;;
6517;SDS011;3292;48.944;9.240;2023-06-26T02:44:26;8.40;;;7.50;;
6517;SDS011;3292;48.944;9.240;2023-06-26T02:46:53;8.40;;;7.60;;
6517;SDS011;3292;48.944;9.240;2023-06-26T02:49:21;8.50;;;7.60;;
6517;SDS011;3292;48.944;9.240;2023-06-26T02:51:48;7.60;;;6.80;;
6517;SDS011;3292;48.944;9.240;2023-06-26T02:54:14;8.87;;;7.50;;
6517;SDS011;3292;48.944;9.240;2023-06-26T02:56:41;8.27;;;7.40;;
6517;SDS011;3292;48.944;9.240;2023-06-26T02:59:08;8.50;;;7.67;;
6517;SDS011;3292;48.944;9.240;2023-06-26T03:01:43;10.17;;;7.73;;
6517;SDS011;3292;48.944;9.240;2023-06-26T03:04:10;7.97;;;7.20;;
6517;SDS011;3292;48.944;9.240;2023-06-26T03:06:40;7.93;;;7.13;;
6517;SDS011;3292;48.944;9.240;2023-06-26T03:09:07;8.10;;;7.30;;
6517;SDS011;3292;48.944;9.240;2023-06-26T03:11:37;8.87;;;8.07;;
6517;SDS011;3292;48.944;9.240;2023-06-26T03:14:05;8.87;;;7.97;;
6517;SDS011;3292;48.944;9.240;2023-06-26T03:16:38;8.70;;;7.80;;
6517;SDS011;3292;48.944;9.240;2023-06-26T03:19:06;9.37;;;8.07;;
6517;SDS011;3292;48.944;9.240;2023-06-26T03:21:33;8.97;;;7.97;;
6517;SDS011;3292;48.944;9.240;2023-06-26T03:24:05;8.87;;;7.77;;
6517;SDS011;3292;48.944;9.240;2023-06-26T03:26:33;8.90;;;7.73;;
6517;SDS011;3292;48.944;9.240;2023-06-26T03:29:01;9.33;;;8.33;;
6517;SDS011;3292;48.944;9.240;2023-06-26T03:31:34;8.90;;;8.00;;
6517;SDS011;3292;48.944;9.240;2023-06-26T03:34:07;9.83;;;7.80;;
6517;SDS011;3292;48.944;9.240;2023-06-26T03:36:37;8.63;;;7.53;;
6517;SDS011;3292;48.944;9.240;2023-06-26T03:39:09;8.70;;;7.90;;
6517;SDS011;3292;48.944;9.240;2023-06-26T03:41:36;8.57;;;7.77;;
6517;SDS011;3292;48.944;9.240;2023-06-26T03:44:04;8.77;;;7.87;;
6517;SDS011;3292;48.944;9.240;2023-06-26T03:46:32;8.53;;;7.70;;
6517;SDS011;3292;48.944;9.240;2023-06-26T03:49:01;7.87;;;7.17;;
6517;SDS011;3292;48.944;9.240;2023-06-26T03:51:32;8.47;;;7.63;;
6517;SDS011;3292;48.944;9.240;2023-06-26T03:54:05;8.60;;;7.80;;
6517;SDS011;3292;48.944;9.240;2023-06-26T03:56:38;9.20;;;8.23;;
6517;SDS011;3292;48.944;9.240;2023-06-26T03:59:05;8.57;;;7.30;;
6517;SDS011;3292;48.944;9.240;2023-06-26T04:01:36;9.03;;;8.13;;
6517;SDS011;3292;48.944;9.240;2023-06-26T04:04:04;9.40;;;8.50;;
6517;SDS011;3292;48.944;9.240;2023-06-26T04:06:31;9.07;;;8.17;;
6517;SDS011;3292;48.944;9.240;2023-06-26T04:09:01;9.43;;;8.10;;
6517;SDS011;3292;48.944;9.240;2023-06-26T04:11:29;8.97;;;8.07;;
6517;SDS011;3292;48.944;9.240;2023-06-26T04:13:58;8.73;;;7.83;;
6517;SDS011;3292;48.944;9.240;2023-06-26T04:16:28;8.03;;;7.30;;
6517;SDS011;3292;48.944;9.240;2023-06-26T04:18:59;10.27;;;8.07;;
6517;SDS011;3292;48.944;9.240;2023-06-26T04:21:30;9.00;;;8.07;;
6517;SDS011;3292;48.944;9.240;2023-06-26T04:23:57;10.07;;;8.60;;
6517;SDS011;3292;48.944;9.240;2023-06-26T04:26:29;8.63;;;7.50;;
6517;SDS011;3292;48.944;9.240;2023-06-26T04:29:07;9.70;;;7.73;;
6517;SDS011;3292;48.944;9.240;2023-06-26T04:31:36;9.33;;;8.40;;
6517;SDS011;3292;48.944;9.240;2023-06-26T04:34:05;9.77;;;7.60;;
6517;SDS011;3292;48.944;9.240;2023-06-26T04:36:32;9.23;;;7.87;;
6517;SDS011;3292;48.944;9.240;2023-06-26T04:39:04;10.33;;;8.17;;
6517;SDS011;3292;48.944;9.240;2023-06-26T04:41:32;10.27;;;8.17;;
6517;SDS011;3292;48.944;9.240;2023-06-26T04:44:01;8.90;;;8.00;;
6517;SDS011;3292;48.944;9.240;2023-06-26T04:46:31;8.63;;;7.80;;
6517;SDS011;3292;48.944;9.240;2023-06-26T04:48:58;9.30;;;8.27;;
6517;SDS011;3292;48.944;9.240;2023-06-26T04:51:28;9.77;;;7.70;;
6517;SDS011;3292;48.944;9.240;2023-06-26T04:53:57;9.07;;;8.20;;
6517;SDS011;3292;48.944;9.240;2023-06-26T04:56:31;8.77;;;7.87;;
6517;SDS011;3292;48.944;9.240;2023-06-26T04:59:12;8.77;;;7.87;;
6517;SDS011;3292;48.944;9.240;2023-06-26T05:01:41;8.63;;;7.83;;
6517;SDS011;3292;48.944;9.240;2023-06-26T05:04:08;8.87;;;7.60;;
6517;SDS011;3292;48.944;9.240;2023-06-26T05:06:36;8.80;;;7.87;;
6517;SDS011;3292;48.944;9.240;2023-06-26T05:09:03;9.13;;;8.10;;
6517;SDS011;3292;48.944;9.240;2023-06-26T05:11:30;8.97;;;8.03;;
6517;SDS011;3292;48.944;9.240;2023-06-26T05:13:57;8.63;;;7.83;;
6517;SDS011;3292;48.944;9.240;2023-06-26T05:16:28;8.73;;;7.83;;
6517;SDS011;3292;48.944;9.240;2023-06-26T05:18:58;8.70;;;7.90;;
6517;SDS011;3292;48.944;9.240;2023-06-26T05:21:25;7.90;;;7.10;;
6517;SDS011;3292;48.944;9.240;2023-06-26T05:23:55;8.97;;;8.03;;
6517;SDS011;3292;48.944;9.240;2023-06-26T05:26:23;8.83;;;7.50;;
6517;SDS011;3292;48.944;9.240;2023-06-26T05:28:55;10.00;;;7.40;;
6517;SDS011;3292;48.944;9.240;2023-06-26T05:31:23;9.47;;;8.30;;
6517;SDS011;3292;48.944;9.240;2023-06-26T05:33:50;10.77;;;7.10;;
6517;SDS011;3292;48.944;9.240;2023-06-26T05:36:21;9.83;;;7.47;;
6517;SDS011;3292;48.944;9.240;2023-06-26T05:38:51;9.17;;;8.27;;
6517;SDS011;3292;48.944;9.240;2023-06-26T05:41:19;9.20;;;8.30;;
6517;SDS011;3292;48.944;9.240;2023-06-26T05:43:47;9.37;;;7.67;;
6517;SDS011;3292;48.944;9.240;2023-06-26T05:46:13;8.17;;;7.37;;
6517;SDS011;3292;48.944;9.240;2023-06-26T05:48:46;9.03;;;8.00;;
6517;SDS011;3292;48.944;9.240;2023-06-26T05:51:13;9.33;;;8.00;;
6517;SDS011;3292;48.944;9.240;2023-06-26T05:53:42;8.10;;;7.30;;
6517;SDS011;3292;48.944;9.240;2023-06-26T05:56:10;8.93;;;8.07;;
6517;SDS011;3292;48.944;9.240;2023-06-26T05:58:37;8.10;;;7.30;;
6517;SDS011;3292;48.944;9.240;2023-06-26T06:01:05;8.83;;;8.03;;
6517;SDS011;3292;48.944;9.240;2023-06-26T06:03:32;8.33;;;7.53;;
6517;SDS011;3292;48.944;9.240;2023-06-26T06:05:58;8.77;;;7.70;;
6517;SDS011;3292;48.944;9.240;2023-06-26T06:08:27;9.13;;;7.80;;
6517;SDS011;3292;48.944;9.240;2023-06-26T06:11:01;8.38;;;7.50;;
6517;SDS011;3292;48.944;9.240;2023-06-26T06:13:29;8.57;;;7.78;;
6517;SDS011;3292;48.944;9.240;2023-06-26T06:15:59;7.68;;;6.97;;
6517;SDS011;3292;48.944;9.240;2023-06-26T06:18:26;8.00;;;7.30;;
6517;SDS011;3292;48.944;9.240;2023-06-26T06:20:54;7.15;;;6.45;;
6517;SDS011;3292;48.944;9.240;2023-06-26T06:23:21;8.05;;;7.20;;
6517;SDS011;3292;48.944;9.240;2023-06-26T06:25:49;8.05;;;7.03;;
6517;SDS011;3292;48.944;9.240;2023-06-26T06:28:19;7.60;;;6.90;;
6517;SDS011;3292;48.944;9.240;2023-06-26T06:30:47;7.97;;;7.28;;
6517;SDS011;3292;48.944;9.240;2023-06-26T06:33:14;7.90;;;7.15;;
6517;SDS011;3292;48.944;9.240;2023-06-26T06:35:42;9.15;;;7.60;;
6517;SDS011;3292;48.944;9.240;2023-06-26T06:38:10;7.57;;;6.90;;
6517;SDS011;3292;48.944;9.240;2023-06-26T06:40:40;8.15;;;6.80;;
6517;SDS011;3292;48.944;9.240;2023-06-26T06:43:07;8.50;;;6.85;;
6517;SDS011;3292;48.944;9.240;2023-06-26T06:45:35;7.95;;;7.07;;
6517;SDS011;3292;48.944;9.240;2023-06-26T06:48:11;7.22;;;6.53;;
6517;SDS011;3292;48.944;9.240;2023-06-26T06:50:38;7.72;;;7.03;;
6517;SDS011;3292;48.944;9.240;2023-06-26T06:53:04;7.82;;;6.90;;
6517;SDS011;3292;48.944;9.240;2023-06-26T06:55:31;9.07;;;6.45;;
6517;SDS011;3292;48.944;9.240;2023-06-26T06:58:02;7.45;;;6.50;;
6517;SDS011;3292;48.944;9.240;2023-06-26T07:00:29;7.55;;;6.93;;
6517;SDS011;3292;48.944;9.240;2023-06-26T07:02:59;7.60;;;6.97;;
6517;SDS011;3292;48.944;9.240;2023-06-26T07:05:27;8.18;;;7.32;;
6517;SDS011;3292;48.944;9.240;2023-06-26T07:07:54;7.63;;;6.93;;
6517;SDS011;3292;48.944;9.240;2023-06-26T07:10:21;7.82;;;6.55;;
6517;SDS011;3292;48.944;9.240;2023-06-26T07:12:48;7.00;;;6.38;;
6517;SDS011;3292;48.944;9.240;2023-06-26T07:15:18;7.93;;;7.15;;
6517;SDS011;3292;48.944;9.240;2023-06-26T07:17:45;7.45;;;6.75;;
6517;SDS011;3292;48.944;9.240;2023-06-26T07:20:14;7.88;;;6.80;;
6517;SDS011;3292;48.944;9.240;2023-06-26T07:22:42;8.90;;;7.53;;
6517;SDS011;3292;48.944;9.240;2023-06-26T07:25:10;8.30;;;7.00;;
6517;SDS011;3292;48.944;9.240;2023-06-26T07:27:37;7.90;;;7.10;;
6517;SDS011;3292;48.944;9.240;2023-06-26T07:30:08;7.40;;;6.50;;
6517;SDS011;3292;48.944;9.240;2023-06-26T07:32:36;8.93;;;6.82;;
6517;SDS011;3292;48.944;9.240;2023-06-26T07:35:06;7.90;;;7.18;;
6517;SDS011;3292;48.944;9.240;2023-06-26T07:37:41;7.78;;;6.32;;
6517;SDS011;3292;48.944;9.240;2023-06-26T07:40:09;7.13;;;6.53;;
6517;SDS011;3292;48.944;9.240;2023-06-26T07:42:38;7.63;;;6.65;;
6517;SDS011;3292;48.944;9.240;2023-06-26T07:45:06;8.00;;;7.20;;
6517;SDS011;3292;48.944;9.240;2023-06-26T07:47:36;7.55;;;6.90;;
6517;SDS011;3292;48.944;9.240;2023-06-26T07:50:04;7.72;;;6.22;;
6517;SDS011;3292;48.944;9.240;2023-06-26T07:52:32;7.65;;;6.40;;
6517;SDS011;3292;48.944;9.240;2023-06-26T07:55:01;6.82;;;6.22;;
6517;SDS011;3292;48.944;9.240;2023-06-26T07:57:29;6.72;;;6.03;;
6517;SDS011;3292;48.944;9.240;2023-06-26T07:59:57;6.70;;;6.10;;
6517;SDS011;3292;48.944;9.240;2023-06-26T08:02:27;8.60;;;6.95;;
6517;SDS011;3292;48.944;9.240;2023-06-26T08:04:55;9.52;;;6.40;;
6517;SDS011;3292;48.944;9.240;2023-06-26T08:07:22;7.15;;;6.45;;
6517;SDS011;3292;48.944;9.240;2023-06-26T08:09:49;11.02;;;6.30;;
6517;SDS011;3292;48.944;9.240;2023-06-26T08:12:17;8.52;;;6.43;;
6517;SDS011;3292;48.944;9.240;2023-06-26T08:14:44;7.45;;;6.10;;
6517;SDS011;3292;48.944;9.240;2023-06-26T08:17:11;9.25;;;7.03;;
6517;SDS011;3292;48.944;9.240;2023-06-26T08:19:37;7.43;;;6.25;;
6517;SDS011;3292;48.944;9.240;2023-06-26T08:22:04;7.32;;;6.57;;
6517;SDS011;3292;48.944;9.240;2023-06-26T08:24:31;7.20;;;6.50;;
6517;SDS011;3292;48.944;9.240;2023-06-26T08:26:58;7.22;;;6.07;;
6517;SDS011;3292;48.944;9.240;2023-06-26T08:29:27;7.25;;;6.07;;
6517;SDS011;3292;48.944;9.240;2023-06-26T08:31:56;7.35;;;6.65;;
6517;SDS011;3292;48.944;9.240;2023-06-26T08:34:24;8.45;;;5.88;;
6517;SDS011;3292;48.944;9.240;2023-06-26T08:36:58;6.82;;;6.22;;
6517;SDS011;3292;48.944;9.240;2023-06-26T08:39:39;6.90;;;6.20;;
6517;SDS011;3292;48.944;9.240;2023-06-26T08:42:06;7.78;;;5.75;;
6517;SDS011;3292;48.944;9.240;2023-06-26T08:44:34;6.55;;;5.95;;
6517;SDS011;3292;48.944;9.240;2023-06-26T08:47:01;6.38;;;5.78;;
6517;SDS011;3292;48.944;9.240;2023-06-26T08:49:42;8.32;;;5.45;;
6517;SDS011;3292;48.944;9.240;2023-06-26T08:52:23;6.18;;;5.60;;
6517;SDS011;3292;48.944;9.240;2023-06-26T08:54:52;6.28;;;5.68;;
6517;SDS011;3292;48.944;9.240;2023-06-26T08:57:30;9.63;;;6.05;;
6517;SDS011;3292;48.944;9.240;2023-06-26T09:00:13;6.88;;;5.68;;
6517;SDS011;3292;48.944;9.240;2023-06-26T09:02:47;7.03;;;5.38;;
6517;SDS011;3292;48.944;9.240;2023-06-26T09:05:14;6.20;;;5.18;;
6517;SDS011;3292;48.944;9.240;2023-06-26T09:07:41;7.10;;;5.43;;
6517;SDS011;3292;48.944;9.240;2023-06-26T09:10:08;6.45;;;5.28;;
6517;SDS011;3292;48.944;9.240;2023-06-26T09:12:39;5.75;;;5.25;;
6517;SDS011;3292;48.944;9.240;2023-06-26T09:15:06;5.85;;;5.32;;
6517;SDS011;3292;48.944;9.240;2023-06-26T09:17:38;5.43;;;4.97;;
6517;SDS011;3292;48.944;9.240;2023-06-26T09:20:25;6.00;;;5.32;;
6517;SDS011;3292;48.944;9.240;2023-06-26T09:22:54;6.60;;;4.80;;
6517;SDS011;3292;48.944;9.240;2023-06-26T09:25:21;6.35;;;4.60;;
6517;SDS011;3292;48.944;9.240;2023-06-26T09:27:49;6.28;;;4.57;;
6517;SDS011;3292;48.944;9.240;2023-06-26T09:30:16;6.90;;;4.90;;
6517;SDS011;3292;48.944;9.240;2023-06-26T09:32:45;6.28;;;5.35;;
6517;SDS011;3292;48.944;9.240;2023-06-26T09:35:14;5.45;;;4.95;;
6517;SDS011;3292;48.944;9.240;2023-06-26T09:37:45;5.32;;;4.82;;
6517;SDS011;3292;48.944;9.240;2023-06-26T09:40:13;6.10;;;4.80;;
6517;SDS011;3292;48.944;9.240;2023-06-26T09:42:42;5.00;;;4.50;;
6517;SDS011;3292;48.944;9.240;2023-06-26T09:45:17;7.95;;;4.93;;
6517;SDS011;3292;48.944;9.240;2023-06-26T09:47:49;6.05;;;4.88;;
6517;SDS011;3292;48.944;9.240;2023-06-26T09:50:22;6.70;;;5.05;;
6517;SDS011;3292;48.944;9.240;2023-06-26T09:52:52;5.32;;;4.82;;
6517;SDS011;3292;48.944;9.240;2023-06-26T09:55:19;6.93;;;5.13;;
6517;SDS011;3292;48.944;9.240;2023-06-26T09:57:48;5.13;;;4.63;;
6517;SDS011;3292;48.944;9.240;2023-06-26T10:00:23;6.07;;;4.97;;
6517;SDS011;3292;48.944;9.240;2023-06-26T10:02:53;6.28;;;4.82;;
6517;SDS011;3292;48.944;9.240;2023-06-26T10:05:20;5.32;;;4.82;;
6517;SDS011;3292;48.944;9.240;2023-06-26T10:07:50;5.28;;;4.80;;
6517;SDS011;3292;48.944;9.240;2023-06-26T10:10:19;5.72;;;5.10;;
6517;SDS011;3292;48.944;9.240;2023-06-26T10:12:48;6.95;;;5.10;;
6517;SDS011;3292;48.944;9.240;2023-06-26T10:15:18;6.18;;;5.60;;
6517;SDS011;3292;48.944;9.240;2023-06-26T10:17:47;5.20;;;4.68;;
6517;SDS011;3292;48.944;9.240;2023-06-26T10:20:17;7.03;;;5.28;;
6517;SDS011;3292;48.944;9.240;2023-06-26T10:22:53;7.28;;;5.78;;
6517;SDS011;3292;48.944;9.240;2023-06-26T10:25:24;6.82;;;5.07;;
6517;SDS011;3292;48.944;9.240;2023-06-26T10:27:54;8.80;;;5.78;;
6517;SDS011;3292;48.944;9.240;2023-06-26T10:30:26;5.90;;;5.07;;
6517;SDS011;3292;48.944;9.240;2023-06-26T10:32:55;12.60;;;5.70;;
6517;SDS011;3292;48.944;9.240;2023-06-26T10:35:25;12.57;;;5.90;;
6517;SDS011;3292;48.944;9.240;2023-06-26T10:37:53;8.75;;;5.50;;
6517;SDS011;3292;48.944;9.240;2023-06-26T10:40:45;8.85;;;5.18;;
6517;SDS011;3292;48.944;9.240;2023-06-26T10:43:14;10.57;;;5.10;;
6517;SDS011;3292;48.944;9.240;2023-06-26T10:45:47;5.68;;;5.18;;
6517;SDS011;3292;48.944;9.240;2023-06-26T10:48:17;6.97;;;5.18;;
6517;SDS011;3292;48.944;9.240;2023-06-26T10:50:48;7.28;;;6.00;;
6517;SDS011;3292;48.944;9.240;2023-06-26T10:53:15;7.18;;;5.70;;
6517;SDS011;3292;48.944;9.240;2023-06-26T10:55:50;9.95;;;6.00;;
6517;SDS011;3292;48.944;9.240;2023-06-26T10:58:31;8.52;;;6.40;;
6517;SDS011;3292;48.944;9.240;2023-06-26T11:01:16;9.00;;;6.15;;
6517;SDS011;3292;48.944;9.240;2023-06-26T11:03:46;7.70;;;5.47;;
6517;SDS011;3292;48.944;9.240;2023-06-26T11:06:17;7.55;;;5.43;;
6517;SDS011;3292;48.944;9.240;2023-06-26T11:08:45;7.43;;;6.28;;
6517;SDS011;3292;48.944;9.240;2023-06-26T11:11:12;10.52;;;6.13;;
6517;SDS011;3292;48.944;9.240;2023-06-26T11:13:39;8.57;;;6.43;;
6517;SDS011;3292;48.944;9.240;2023-06-26T11:16:07;9.20;;;5.82;;
6517;SDS011;3292;48.944;9.240;2023-06-26T11:18:34;6.22;;;5.63;;
6517;SDS011;3292;48.944;9.240;2023-06-26T11:21:04;12.60;;;6.57;;
6517;SDS011;3292;48.944;9.240;2023-06-26T11:23:34;11.02;;;5.97;;
6517;SDS011;3292;48.944;9.240;2023-06-26T11:26:14;8.80;;;5.88;;
6517;SDS011;3292;48.944;9.240;2023-06-26T11:28:48;11.60;;;5.88;;
6517;SDS011;3292;48.944;9.240;2023-06-26T11:31:25;14.07;;;6.75;;
6517;SDS011;3292;48.944;9.240;2023-06-26T11:33:54;8.93;;;5.93;;
6517;SDS011;3292;48.944;9.240;2023-06-26T11:36:22;9.85;;;5.85;;
6517;SDS011;3292;48.944;9.240;2023-06-26T11:38:55;7.88;;;5.95;;
6517;SDS011;3292;48.944;9.240;2023-06-26T11:41:22;7.45;;;6.13;;
6517;SDS011;3292;48.944;9.240;2023-06-26T11:43:50;7.63;;;6.40;;
6517;SDS011;3292;48.944;9.240;2023-06-26T11:46:18;11.20;;;6.68;;
6517;SDS011;3292;48.944;9.240;2023-06-26T11:48:46;6.43;;;5.82;;
6517;SDS011;3292;48.944;9.240;2023-06-26T11:51:13;7.40;;;5.53;;
6517;SDS011;3292;48.944;9.240;2023-06-26T11:53:41;7.75;;;6.05;;
6517;SDS011;3292;48.944;9.240;2023-06-26T11:56:10;6.68;;;5.93;;
6517;SDS011;3292;48.944;9.240;2023-06-26T12:01:23;7.78;;;6.20;;
6517;SDS011;3292;48.944;9.240;2023-06-26T12:03:51;6.72;;;6.03;;
6517;SDS011;3292;48.944;9.240;2023-06-26T12:06:20;10.02;;;6.07;;
6517;SDS011;3292;48.944;9.240;2023-06-26T12:08:47;8.80;;;6.03;;
6517;SDS011;3292;48.944;9.240;2023-06-26T12:11:16;6.70;;;5.75;;
6517;SDS011;3292;48.944;9.240;2023-06-26T12:13:44;8.18;;;5.93;;
6517;SDS011;3292;48.944;9.240;2023-06-26T12:16:11;8.00;;;6.75;;
6517;SDS011;3292;48.944;9.240;2023-06-26T12:18:40;8.20;;;6.30;;
6517;SDS011;3292;48.944;9.240;2023-06-26T12:21:07;7.35;;;5.70;;
6517;SDS011;3292;48.944;9.240;2023-06-26T12:23:35;11.30;;;6.15;;
6517;SDS011;3292;48.944;9.240;2023-06-26T12:26:19;6.97;;;5.97;;
6517;SDS011;3292;48.944;9.240;2023-06-26T12:28:46;8.75;;;5.57;;
6517;SDS011;3292;48.944;9.240;2023-06-26T12:31:14;7.97;;;6.10;;
6517;SDS011;3292;48.944;9.240;2023-06-26T12:33:42;9.95;;;6.35;;
6517;SDS011;3292;48.944;9.240;2023-06-26T12:36:10;8.65;;;6.18;;
6517;SDS011;3292;48.944;9.240;2023-06-26T12:38:38;8.60;;;5.85;;
6517;SDS011;3292;48.944;9.240;2023-06-26T12:41:05;7.80;;;5.90;;
6517;SDS011;3292;48.944;9.240;2023-06-26T12:43:33;8.38;;;6.35;;
6517;SDS011;3292;48.944;9.240;2023-06-26T12:46:05;9.68;;;6.03;;
6517;SDS011;3292;48.944;9.240;2023-06-26T12:48:38;8.60;;;6.60;;
6517;SDS011;3292;48.944;9.240;2023-06-26T12:51:09;6.82;;;6.13;;
6517;SDS011;3292;48.944;9.240;2023-06-26T12:53:36;7.82;;;5.95;;
6517;SDS011;3292;48.944;9.240;2023-06-26T12:56:04;7.70;;;6.00;;
6517;SDS011;3292;48.944;9.240;2023-06-26T12:58:33;10.32;;;6.18;;
6517;SDS011;3292;48.944;9.240;2023-06-26T13:01:01;13.23;;;6.15;;
6517;SDS011;3292;48.944;9.240;2023-06-26T13:03:29;6.07;;;5.30;;
6517;SDS011;3292;48.944;9.240;2023-06-26T13:05:56;8.05;;;6.05;;
6517;SDS011;3292;48.944;9.240;2023-06-26T13:08:23;6.20;;;5.57;;
6517;SDS011;3292;48.944;9.240;2023-06-26T13:10:50;6.70;;;5.40;;
6517;SDS011;3292;48.944;9.240;2023-06-26T13:13:17;6.07;;;5.13;;
6517;SDS011;3292;48.944;9.240;2023-06-26T13:15:45;8.23;;;5.38;;
6517;SDS011;3292;48.944;9.240;2023-06-26T13:18:12;8.38;;;5.53;;
6517;SDS011;3292;48.944;9.240;2023-06-26T13:20:38;5.95;;;5.15;;
6517;SDS011;3292;48.944;9.240;2023-06-26T13:23:05;9.07;;;5.35;;
6517;SDS011;3292;48.944;9.240;2023-06-26T13:25:32;8.15;;;5.63;;
6517;SDS011;3292;48.944;9.240;2023-06-26T13:27:59;5.60;;;5.05;;
6517;SDS011;3292;48.944;9.240;2023-06-26T13:30:26;9.45;;;5.22;;
6517;SDS011;3292;48.944;9.240;2023-06-26T13:32:54;6.63;;;5.32;;
6517;SDS011;3292;48.944;9.240;2023-06-26T13:35:21;5.45;;;4.93;;
6517;SDS011;3292;48.944;9.240;2023-06-26T13:37:48;5.13;;;4.43;;
6517;SDS011;3292;48.944;9.240;2023-06-26T13:40:15;5.47;;;5.00;;
6517;SDS011;3292;48.944;9.240;2023-06-26T13:42:42;6.82;;;5.00;;
6517;SDS011;3292;48.944;9.240;2023-06-26T13:45:09;8.68;;;4.72;;
6517;SDS011;3292;48.944;9.240;2023-06-26T13:47:36;7.18;;;4.63;;
6517;SDS011;3292;48.944;9.240;2023-06-26T13:50:08;7.25;;;4.47;;
6517;SDS011;3292;48.944;9.240;2023-06-26T13:52:35;5.63;;;4.20;;
6517;SDS011;3292;48.944;9.240;2023-06-26T13:55:03;9.25;;;4.25;;
6517;SDS011;3292;48.944;9.240;2023-06-26T13:57:30;8.20;;;4.55;;
6517;SDS011;3292;48.944;9.240;2023-06-26T13:59:57;6.30;;;4.05;;
6517;SDS011;3292;48.944;9.240;2023-06-26T14:02:24;5.60;;;4.13;;
6517;SDS011;3292;48.944;9.240;2023-06-26T14:04:51;4.90;;;3.78;;
6517;SDS011;3292;48.944;9.240;2023-06-26T14:07:19;6.85;;;4.10;;
6517;SDS011;3292;48.944;9.240;2023-06-26T14:09:46;4.95;;;3.58;;
6517;SDS011;3292;48.944;9.240;2023-06-26T14:12:13;4.03;;;3.60;;
6517;SDS011;3292;48.944;9.240;2023-06-26T14:14:40;7.57;;;3.55;;
6517;SDS011;3292;48.944;9.240;2023-06-26T14:17:07;3.90;;;3.60;;
6517;SDS011;3292;48.944;9.240;2023-06-26T14:19:35;5.00;;;4.53;;
6517;SDS011;3292;48.944;9.240;2023-06-26T14:22:02;4.55;;;3.92;;
6517;SDS011;3292;48.944;9.240;2023-06-26T14:24:31;7.45;;;4.53;;
6517;SDS011;3292;48.944;9.240;2023-06-26T14:26:57;5.85;;;4.30;;
6517;SDS011;3292;48.944;9.240;2023-06-26T14:29:24;5.85;;;4.20;;
6517;SDS011;3292;48.944;9.240;2023-06-26T14:31:51;6.07;;;3.95;;
6517;SDS011;3292;48.944;9.240;2023-06-26T14:34:18;5.35;;;3.40;;
6517;SDS011;3292;48.944;9.240;2023-06-26T14:36:45;5.30;;;4.10;;
6517;SDS011;3292;48.944;9.240;2023-06-26T14:39:12;7.43;;;4.30;;
6517;SDS011;3292;48.944;9.240;2023-06-26T14:41:41;4.25;;;3.85;;
6517;SDS011;3292;48.944;9.240;2023-06-26T14:44:09;7.45;;;3.70;;
6517;SDS011;3292;48.944;9.240;2023-06-26T14:46:36;5.80;;;4.10;;
6517;SDS011;3292;48.944;9.240;2023-06-26T14:49:03;6.82;;;4.05;;
6517;SDS011;3292;48.944;9.240;2023-06-26T14:51:29;5.72;;;3.92;;
6517;SDS011;3292;48.944;9.240;2023-06-26T14:53:56;6.18;;;3.97;;
6517;SDS011;3292;48.944;9.240;2023-06-26T14:56:23;5.22;;;3.55;;
6517;SDS011;3292;48.944;9.240;2023-06-26T14:58:51;3.85;;;3.40;;
6517;SDS011;3292;48.944;9.240;2023-06-26T15:01:18;5.30;;;3.60;;
6517;SDS011;3292;48.944;9.240;2023-06-26T15:03:45;4.13;;;3.53;;
6517;SDS011;3292;48.944;9.240;2023-06-26T15:06:12;8.20;;;3.50;;
6517;SDS011;3292;48.944;9.240;2023-06-26T15:08:39;4.32;;;3.85;;
6517;SDS011;3292;48.944;9.240;2023-06-26T15:11:06;9.55;;;4.28;;
6517;SDS011;3292;48.944;9.240;2023-06-26T15:13:32;5.47;;;4.30;;
6517;SDS011;3292;48.944;9.240;2023-06-26T15:16:00;5.53;;;4.07;;
6517;SDS011;3292;48.944;9.240;2023-06-26T15:18:27;4.63;;;4.00;;
6517;SDS011;3292;48.944;9.240;2023-06-26T15:20:54;10.65;;;4.72;;
6517;SDS011;3292;48.944;9.240;2023-06-26T15:23:21;8.07;;;5.07;;
6517;SDS011;3292;48.944;9.240;2023-06-26T15:25:48;7.03;;;4.80;;
6517;SDS011;3292;48.944;9.240;2023-06-26T15:28:15;5.57;;;4.85;;
6517;SDS011;3292;48.944;9.240;2023-06-26T15:30:42;6.15;;;5.28;;